createdAt,value
2023-03-20T00:01:12.740Z,47.38
2023-03-20T00:03:39.178Z,48.28
2023-03-20T00:06:06.151Z,47.83
2023-03-20T00:08:33.030Z,49.83
2023-03-20T00:10:59.575Z,47.05
2023-03-20T00:13:28.293Z,51.30
2023-03-20T00:15:55.020Z,51.58
2023-03-20T00:18:24.799Z,48.88
2023-03-20T00:20:51.962Z,48.22
2023-03-20T00:23:18.633Z,48.67
2023-03-20T00:25:46.890Z,48.33
2023-03-20T00:28:36.297Z,50.90
2023-03-20T00:31:02.928Z,47.63
2023-03-20T00:33:31.301Z,52.22
2023-03-20T00:35:59.038Z,50.20
2023-03-20T00:38:25.889Z,49.25
2023-03-20T00:40:52.591Z,49.08
2023-03-20T00:43:19.177Z,50.22
2023-03-20T00:45:46.659Z,48.53
2023-03-20T00:48:16.854Z,48.50
2023-03-20T00:50:43.593Z,48.33
2023-03-20T00:53:11.850Z,50.80
2023-03-20T00:55:40.038Z,49.25
2023-03-20T00:58:06.817Z,47.05
2023-03-20T01:00:42.778Z,48.60
2023-03-20T01:03:18.674Z,49.42
2023-03-20T01:05:46.348Z,49.58
2023-03-20T01:08:21.419Z,45.88
2023-03-20T01:10:53.003Z,47.63
2023-03-20T01:13:24.005Z,47.85
2023-03-20T01:15:52.492Z,47.13
2023-03-20T01:18:21.457Z,48.85
2023-03-20T01:20:49.033Z,47.35
2023-03-20T01:23:16.353Z,46.55
2023-03-20T01:25:43.077Z,45.75
2023-03-20T01:28:23.204Z,47.38
2023-03-20T01:30:50.582Z,48.08
2023-03-20T01:33:23.854Z,45.78
2023-03-20T01:35:51.490Z,46.03
2023-03-20T01:38:26.276Z,47.50
2023-03-20T01:41:01.816Z,45.28
2023-03-20T01:43:29.515Z,46.72
2023-03-20T01:46:04.130Z,45.17
2023-03-20T01:48:52.634Z,47.38
2023-03-20T01:51:22.739Z,43.60
2023-03-20T01:53:58.813Z,42.60
2023-03-20T01:56:27.064Z,45.58
2023-03-20T01:58:59.991Z,45.03
2023-03-20T02:01:27.881Z,41.60
2023-03-20T02:03:55.757Z,44.03
2023-03-20T02:06:23.846Z,42.75
2023-03-20T02:08:52.417Z,41.30
2023-03-20T02:11:22.493Z,41.80
2023-03-20T02:13:53.021Z,42.35
2023-03-20T02:16:20.360Z,40.88
2023-03-20T02:18:49.767Z,41.75
2023-03-20T02:21:55.362Z,38.27
2023-03-20T02:24:49.907Z,39.53
2023-03-20T02:27:20.673Z,37.13
2023-03-20T02:30:09.118Z,38.33
2023-03-20T02:33:00.526Z,36.92
2023-03-20T02:35:57.925Z,32.15
2023-03-20T02:38:43.937Z,30.20
2023-03-20T02:41:19.479Z,30.10
2023-03-20T02:43:59.327Z,28.20
2023-03-20T02:46:50.855Z,30.40
2023-03-20T02:49:31.760Z,30.13
2023-03-20T02:52:08.257Z,28.35
2023-03-20T02:54:43.966Z,28.90
2023-03-20T02:57:27.256Z,30.25
2023-03-20T03:00:00.369Z,29.98
2023-03-20T03:02:45.030Z,29.25
2023-03-20T03:05:37.691Z,29.67
2023-03-20T03:08:06.799Z,29.33
2023-03-20T03:10:39.131Z,30.80
2023-03-20T03:13:14.477Z,30.90
2023-03-20T03:15:45.675Z,32.50
2023-03-20T03:18:17.560Z,32.42
2023-03-20T03:20:46.683Z,31.33
2023-03-20T03:23:45.577Z,33.28
2023-03-20T03:26:37.029Z,31.40
2023-03-20T03:29:12.255Z,32.53
2023-03-20T03:31:39.180Z,34.22
2023-03-20T03:34:06.454Z,33.75
2023-03-20T03:36:51.681Z,34.70
2023-03-20T03:39:27.145Z,34.38
2023-03-20T03:42:27.847Z,34.25
2023-03-20T03:44:57.930Z,34.35
2023-03-20T03:47:32.802Z,35.47
2023-03-20T03:50:06.661Z,34.30
2023-03-20T03:52:35.918Z,34.85
2023-03-20T03:55:11.420Z,35.20
2023-03-20T03:57:50.415Z,35.28
2023-03-20T04:00:24.981Z,34.78
2023-03-20T04:02:54.608Z,35.80
2023-03-20T04:05:22.810Z,35.80
2023-03-20T04:07:55.351Z,35.03
2023-03-20T04:10:21.868Z,36.38
2023-03-20T04:12:48.383Z,35.08
2023-03-20T04:15:16.877Z,34.75
2023-03-20T04:17:44.668Z,35.15
2023-03-20T04:20:14.997Z,36.10
2023-03-20T04:25:10.315Z,35.67
2023-03-20T04:27:36.759Z,35.85
2023-03-20T04:30:03.367Z,36.13
2023-03-20T04:32:29.794Z,37.00
2023-03-20T04:34:56.301Z,37.47
2023-03-20T04:37:22.722Z,38.47
2023-03-20T04:39:49.283Z,38.42
2023-03-20T04:42:15.769Z,38.95
2023-03-20T04:44:42.204Z,38.22
2023-03-20T04:47:08.640Z,38.10
2023-03-20T04:49:35.519Z,37.88
2023-03-20T04:52:02.052Z,38.50
2023-03-20T04:54:28.509Z,37.45
2023-03-20T04:56:55.036Z,38.33
2023-03-20T04:59:21.618Z,37.72
2023-03-20T05:01:48.117Z,37.72
2023-03-20T05:04:14.592Z,35.90
2023-03-20T05:06:41.328Z,35.92
2023-03-20T05:09:07.772Z,36.35
2023-03-20T05:11:34.333Z,33.00
2023-03-20T05:14:00.766Z,32.53
2023-03-20T05:16:27.476Z,30.83
2023-03-20T05:18:53.998Z,30.88
2023-03-20T05:21:20.597Z,30.83
2023-03-20T05:23:47.128Z,29.60
2023-03-20T05:26:13.609Z,29.17
2023-03-20T05:28:40.183Z,26.67
2023-03-20T05:31:07.215Z,27.27
2023-03-20T05:33:35.560Z,26.27
2023-03-20T05:36:03.868Z,25.15
2023-03-20T05:38:33.527Z,26.10
2023-03-20T05:41:01.074Z,25.10
2023-03-20T05:43:30.520Z,24.58
2023-03-20T05:45:57.012Z,24.33
2023-03-20T05:48:24.017Z,24.88
2023-03-20T05:50:50.592Z,25.23
2023-03-20T05:53:17.132Z,25.55
2023-03-20T05:55:44.707Z,25.70
2023-03-20T05:58:12.162Z,26.08
2023-03-20T06:00:39.580Z,25.38
2023-03-20T06:03:06.981Z,24.63
2023-03-20T06:05:35.488Z,26.48
2023-03-20T06:08:02.863Z,25.52
2023-03-20T06:10:30.482Z,25.27
2023-03-20T06:13:00.821Z,24.83
2023-03-20T06:17:56.234Z,24.15
2023-03-20T06:20:22.981Z,25.17
2023-03-20T06:22:49.513Z,24.73
2023-03-20T06:25:16.288Z,24.65
2023-03-20T06:27:42.778Z,24.45
2023-03-20T06:30:10.363Z,24.35
2023-03-20T06:32:36.945Z,23.13
2023-03-20T06:35:05.766Z,22.17
2023-03-20T06:37:32.681Z,22.55
2023-03-20T06:39:59.508Z,23.02
2023-03-20T06:42:26.093Z,22.58
2023-03-20T06:44:52.694Z,22.60
2023-03-20T06:47:19.349Z,22.95
2023-03-20T06:49:46.166Z,22.33
2023-03-20T06:52:17.900Z,21.80
2023-03-20T06:54:44.860Z,21.67
2023-03-20T06:57:14.642Z,19.30
2023-03-20T07:02:10.531Z,18.95
2023-03-20T07:04:37.251Z,19.25
2023-03-20T07:07:04.298Z,19.60
2023-03-20T07:09:31.037Z,18.23
2023-03-20T07:11:57.588Z,18.83
2023-03-20T07:14:24.080Z,20.45
2023-03-20T07:16:50.609Z,22.48
2023-03-20T07:19:17.931Z,20.65
2023-03-20T07:21:44.755Z,20.58
2023-03-20T07:24:12.076Z,19.55
2023-03-20T07:26:38.628Z,20.20
2023-03-20T07:29:05.392Z,20.00
2023-03-20T07:31:35.591Z,19.73
2023-03-20T07:36:28.579Z,18.83
2023-03-20T07:38:55.081Z,19.17
2023-03-20T07:41:27.780Z,19.02
2023-03-20T07:43:54.235Z,18.55
2023-03-20T07:46:20.749Z,19.30
2023-03-20T07:48:47.336Z,18.23
2023-03-20T07:51:13.746Z,18.55
2023-03-20T07:53:40.266Z,18.20
2023-03-20T07:56:07.144Z,18.17
2023-03-20T07:58:33.706Z,17.27
2023-03-20T08:01:00.391Z,18.38
2023-03-20T08:03:27.188Z,17.77
2023-03-20T08:05:54.203Z,17.65
2023-03-20T08:08:21.018Z,17.50
2023-03-20T08:10:48.189Z,17.05
2023-03-20T08:13:15.620Z,18.17
2023-03-20T08:15:42.073Z,16.83
2023-03-20T08:18:08.649Z,16.80
2023-03-20T08:20:35.198Z,17.08
2023-03-20T08:23:01.867Z,16.25
2023-03-20T08:25:32.509Z,16.27
2023-03-20T08:28:01.207Z,16.45
2023-03-20T08:30:27.993Z,15.48
2023-03-20T08:32:54.497Z,16.60
2023-03-20T08:35:32.634Z,16.25
2023-03-20T08:38:03.237Z,16.08
2023-03-20T08:40:29.869Z,16.58
2023-03-20T08:42:56.611Z,15.63
2023-03-20T08:45:25.865Z,16.23
2023-03-20T08:47:53.003Z,16.30
2023-03-20T08:50:19.647Z,17.08
2023-03-20T08:52:47.010Z,16.85
2023-03-20T08:55:14.814Z,16.83
2023-03-20T08:57:41.512Z,17.27
2023-03-20T09:00:10.446Z,16.52
2023-03-20T09:02:37.232Z,15.88
2023-03-20T09:05:04.065Z,16.50
2023-03-20T09:07:30.737Z,16.45
2023-03-20T09:09:57.161Z,16.58
2023-03-20T09:12:23.956Z,17.73
2023-03-20T09:14:50.485Z,16.30
2023-03-20T09:17:16.979Z,16.63
2023-03-20T09:19:44.723Z,17.17
2023-03-20T09:22:17.961Z,15.57
2023-03-20T09:24:45.539Z,16.90
2023-03-20T09:27:13.944Z,17.00
2023-03-20T09:29:41.333Z,17.00
2023-03-20T09:32:11.827Z,17.60
2023-03-20T09:34:38.446Z,16.35
2023-03-20T09:37:05.057Z,16.63
2023-03-20T09:39:31.642Z,17.27
2023-03-20T09:42:03.738Z,17.13
2023-03-20T09:45:01.553Z,17.20
2023-03-20T09:47:42.490Z,18.20
2023-03-20T09:50:34.496Z,16.45
2023-03-20T09:53:16.733Z,17.00
2023-03-20T09:55:44.464Z,17.85
2023-03-20T09:58:18.420Z,18.02
2023-03-20T10:00:46.756Z,17.00
2023-03-20T10:03:25.113Z,19.15
2023-03-20T10:06:06.831Z,18.85
2023-03-20T10:08:36.377Z,19.60
2023-03-20T10:11:24.183Z,18.67
2023-03-20T10:14:02.130Z,18.73
2023-03-20T10:16:56.239Z,19.05
2023-03-20T10:19:26.168Z,19.80
2023-03-20T10:21:58.421Z,19.10
2023-03-20T10:24:39.233Z,19.15
2023-03-20T10:27:28.362Z,18.65
2023-03-20T10:30:21.369Z,18.42
2023-03-20T10:32:58.301Z,18.85
2023-03-20T10:35:55.236Z,18.73
2023-03-20T10:38:40.085Z,19.27
2023-03-20T10:41:16.101Z,18.42
2023-03-20T10:43:46.127Z,18.20
2023-03-20T10:46:27.487Z,19.55
2023-03-20T10:49:12.169Z,18.55
2023-03-20T10:51:51.607Z,17.52
2023-03-20T10:54:26.755Z,18.40
2023-03-20T10:56:56.596Z,18.17
2023-03-20T10:59:48.402Z,17.75
2023-03-20T11:02:20.670Z,17.55
2023-03-20T11:04:47.508Z,18.75
2023-03-20T11:07:35.059Z,17.98
2023-03-20T11:10:04.634Z,17.00
2023-03-20T11:12:50.489Z,18.85
2023-03-20T11:15:26.678Z,17.65
2023-03-20T11:18:04.715Z,16.92
2023-03-20T11:20:39.138Z,17.73
2023-03-20T11:23:08.476Z,17.80
2023-03-20T11:25:38.780Z,18.03
2023-03-20T11:31:04.353Z,17.52
2023-03-20T11:33:33.560Z,17.27
2023-03-20T11:36:00.468Z,17.15
2023-03-20T11:38:31.277Z,17.17
2023-03-20T11:40:57.842Z,17.67
2023-03-20T11:43:27.475Z,17.25
2023-03-20T11:45:59.648Z,16.92
2023-03-20T11:48:47.590Z,16.63
2023-03-20T11:51:20.132Z,15.98
2023-03-20T11:53:49.328Z,16.83
2023-03-20T11:56:26.036Z,16.80
2023-03-20T11:58:57.830Z,17.65
2023-03-20T12:01:26.341Z,16.50
2023-03-20T12:04:02.308Z,17.08
2023-03-20T12:06:42.643Z,17.10
2023-03-20T12:12:03.540Z,16.55
2023-03-20T12:14:52.375Z,15.88
2023-03-20T12:17:27.721Z,15.57
2023-03-20T12:20:01.727Z,16.00
2023-03-20T12:22:36.475Z,16.65
2023-03-20T12:25:18.094Z,16.27
2023-03-20T12:27:53.246Z,16.73
2023-03-20T12:30:42.754Z,16.63
2023-03-20T12:33:27.547Z,17.33
2023-03-20T12:35:54.671Z,16.60
2023-03-20T12:38:28.267Z,17.02
2023-03-20T12:41:08.217Z,17.75
2023-03-20T12:43:46.896Z,17.50
2023-03-20T12:46:30.901Z,16.88
2023-03-20T12:49:13.070Z,16.27
2023-03-20T12:51:45.532Z,16.17
2023-03-20T12:54:23.701Z,17.33
2023-03-20T12:57:02.211Z,16.25
2023-03-20T12:59:31.563Z,16.73
2023-03-20T13:02:33.668Z,16.07
2023-03-20T13:05:07.811Z,15.82
2023-03-20T13:08:03.846Z,14.50
2023-03-20T13:10:37.089Z,15.85
2023-03-20T13:13:56.326Z,15.77
2023-03-20T13:16:35.468Z,15.48
2023-03-20T13:19:01.924Z,14.40
2023-03-20T13:22:14.234Z,14.50
2023-03-20T13:25:10.668Z,15.20
2023-03-20T13:27:45.953Z,15.20
2023-03-20T13:30:34.239Z,15.13
2023-03-20T13:33:42.064Z,14.75
2023-03-20T13:36:29.843Z,15.60
2023-03-20T13:39:10.229Z,15.60
2023-03-20T13:41:36.844Z,14.63
2023-03-20T13:44:05.788Z,15.88
2023-03-20T13:46:47.261Z,14.80
2023-03-20T13:49:20.526Z,16.60
2023-03-20T13:52:03.491Z,16.42
2023-03-20T13:54:36.194Z,16.30
2023-03-20T13:57:35.564Z,16.55
2023-03-20T14:00:36.501Z,16.27
2023-03-20T14:03:06.098Z,15.38
2023-03-20T14:05:38.855Z,16.47
2023-03-20T14:08:27.185Z,16.02
2023-03-20T14:11:05.873Z,16.25
2023-03-20T14:13:34.394Z,14.82
2023-03-20T14:16:07.174Z,14.98
2023-03-20T14:18:33.717Z,16.65
2023-03-20T14:21:02.667Z,15.30
2023-03-20T14:23:38.049Z,16.70
2023-03-20T14:26:10.090Z,15.25
2023-03-20T14:28:54.058Z,15.05
2023-03-20T14:31:42.255Z,14.60
2023-03-20T14:34:17.186Z,14.40
2023-03-20T14:36:59.949Z,14.93
2023-03-20T14:39:48.173Z,14.57
2023-03-20T14:42:33.032Z,13.95
2023-03-20T14:45:18.352Z,14.25
2023-03-20T14:48:03.698Z,15.65
2023-03-20T14:50:39.955Z,15.82
2023-03-20T14:53:21.838Z,14.88
2023-03-20T14:55:51.283Z,15.82
2023-03-20T14:58:41.420Z,15.65
2023-03-20T15:01:17.129Z,15.32
2023-03-20T15:03:50.133Z,15.85
2023-03-20T15:06:22.809Z,16.60
2023-03-20T15:08:53.312Z,17.08
2023-03-20T15:11:21.960Z,15.55
2023-03-20T15:13:49.695Z,16.80
2023-03-20T15:16:16.941Z,17.38
2023-03-20T15:18:51.722Z,16.50
2023-03-20T15:21:33.289Z,16.98
2023-03-20T15:24:01.467Z,16.10
2023-03-20T15:26:29.745Z,17.25
2023-03-20T15:29:07.917Z,16.30
2023-03-20T15:31:38.136Z,16.20
2023-03-20T15:36:44.656Z,17.08
2023-03-20T15:39:18.942Z,17.42
2023-03-20T15:41:50.444Z,17.27
2023-03-20T15:44:23.815Z,17.15
2023-03-20T15:46:59.633Z,18.38
2023-03-20T15:49:27.966Z,18.30
2023-03-20T15:51:59.515Z,19.58
2023-03-20T15:54:26.135Z,19.77
2023-03-20T15:56:56.104Z,19.33
2023-03-20T15:59:26.686Z,19.13
2023-03-20T16:01:57.316Z,19.48
2023-03-20T16:04:24.533Z,19.15
2023-03-20T16:06:57.236Z,20.63
2023-03-20T16:09:25.892Z,20.40
2023-03-20T16:12:01.368Z,19.70
2023-03-20T16:14:31.575Z,19.48
2023-03-20T16:17:00.749Z,19.55
2023-03-20T16:19:29.154Z,19.02
2023-03-20T16:22:04.622Z,18.05
2023-03-20T16:24:38.394Z,18.27
2023-03-20T16:27:09.739Z,18.25
2023-03-20T16:29:41.061Z,18.23
2023-03-20T16:32:20.691Z,19.60
2023-03-20T16:34:51.355Z,18.48
2023-03-20T16:37:26.105Z,18.30
2023-03-20T16:40:26.969Z,18.65
2023-03-20T16:42:57.384Z,16.85
2023-03-20T16:45:31.139Z,17.70
2023-03-20T16:48:34.153Z,18.58
2023-03-20T16:51:17.613Z,18.63
2023-03-20T16:53:53.940Z,19.25
2023-03-20T16:56:29.670Z,18.63
2023-03-20T16:58:57.094Z,18.95
2023-03-20T17:01:27.034Z,19.27
2023-03-20T17:03:56.510Z,17.77
2023-03-20T17:06:22.991Z,18.60
2023-03-20T17:08:56.004Z,19.42
2023-03-20T17:11:24.715Z,19.02
2023-03-20T17:13:51.309Z,20.00
2023-03-20T17:16:21.512Z,21.42
2023-03-20T17:21:24.469Z,20.60
2023-03-20T17:23:51.305Z,20.58
2023-03-20T17:26:17.796Z,22.08
2023-03-20T17:28:46.442Z,21.25
2023-03-20T17:31:17.464Z,22.25
2023-03-20T17:33:45.615Z,21.50
2023-03-20T17:36:24.424Z,22.52
2023-03-20T17:38:51.025Z,33.25
2023-03-20T17:41:20.771Z,28.40
2023-03-20T17:43:47.651Z,27.23
2023-03-20T17:46:16.884Z,23.58
2023-03-20T17:48:43.404Z,25.95
2023-03-20T17:51:10.128Z,22.98
2023-03-20T17:53:36.588Z,23.42
2023-03-20T17:56:03.048Z,24.55
2023-03-20T17:58:29.568Z,23.55
2023-03-20T18:00:56.251Z,26.15
2023-03-20T18:03:22.980Z,31.25
2023-03-20T18:05:51.190Z,26.63
2023-03-20T18:08:21.287Z,27.50
2023-03-20T18:10:49.614Z,24.27
2023-03-20T18:13:18.640Z,25.30
2023-03-20T18:15:47.420Z,25.10
2023-03-20T18:18:14.028Z,25.70
2023-03-20T18:20:43.469Z,27.73
2023-03-20T18:23:10.227Z,27.63
2023-03-20T18:25:36.784Z,25.88
2023-03-20T18:28:06.073Z,25.90
2023-03-20T18:30:38.723Z,23.92
2023-03-20T18:33:06.074Z,24.05
2023-03-20T18:35:33.327Z,24.58
2023-03-20T18:38:00.207Z,25.33
2023-03-20T18:40:35.493Z,23.83
2023-03-20T18:43:02.992Z,23.13
2023-03-20T18:45:30.766Z,24.30
2023-03-20T18:47:58.031Z,24.05
2023-03-20T18:50:28.811Z,23.67
2023-03-20T18:52:56.994Z,25.33
2023-03-20T18:55:26.232Z,26.35
2023-03-20T18:57:53.313Z,24.83
2023-03-20T19:00:35.886Z,24.52
2023-03-20T19:03:02.777Z,26.30
2023-03-20T19:05:30.239Z,27.08
2023-03-20T19:07:56.809Z,28.58
2023-03-20T19:10:29.776Z,27.05
2023-03-20T19:12:57.358Z,25.55
2023-03-20T19:15:28.736Z,27.55
2023-03-20T19:17:55.944Z,28.30
2023-03-20T19:20:41.665Z,28.17
2023-03-20T19:23:11.106Z,28.23
2023-03-20T19:25:38.642Z,26.35
2023-03-20T19:28:05.742Z,28.90
2023-03-20T19:30:39.833Z,27.95
2023-03-20T19:33:07.498Z,29.25
2023-03-20T19:38:22.111Z,29.15
2023-03-20T19:40:52.990Z,29.83
2023-03-20T19:43:21.630Z,31.30
2023-03-20T19:45:56.481Z,32.70
2023-03-20T19:51:23.180Z,29.45
2023-03-20T19:53:50.598Z,32.83
2023-03-20T19:56:19.558Z,32.97
2023-03-20T19:58:46.586Z,31.27
2023-03-20T20:01:19.214Z,32.33
2023-03-20T20:03:46.491Z,30.17
2023-03-20T20:06:13.273Z,31.38
2023-03-20T20:08:48.362Z,31.95
2023-03-20T20:11:15.668Z,31.45
2023-03-20T20:14:03.773Z,31.75
2023-03-20T20:16:29.806Z,33.10
2023-03-20T20:18:56.520Z,34.75
2023-03-20T20:24:09.516Z,32.88
2023-03-20T20:26:40.455Z,31.73
2023-03-20T20:29:14.526Z,31.13
2023-03-20T20:31:41.309Z,30.85
2023-03-20T20:35:08.530Z,27.77
2023-03-20T20:39:40.787Z,27.48
2023-03-20T20:42:07.582Z,30.83
2023-03-20T20:44:34.010Z,30.33
2023-03-20T20:47:00.613Z,29.65
2023-03-20T20:49:27.575Z,31.10
2023-03-20T20:51:54.122Z,28.85
2023-03-20T20:54:20.870Z,29.35
2023-03-20T20:56:47.457Z,29.58
2023-03-20T20:59:13.904Z,28.90
2023-03-20T21:01:40.440Z,27.25
2023-03-20T21:04:07.071Z,28.60
2023-03-20T21:07:05.549Z,29.08
2023-03-20T21:09:19.985Z,28.95
2023-03-20T21:11:46.670Z,29.27
2023-03-20T21:14:14.212Z,28.70
2023-03-20T21:16:40.656Z,31.45
2023-03-20T21:19:07.614Z,30.13
2023-03-20T21:21:35.069Z,30.15
2023-03-20T21:24:02.283Z,32.85
2023-03-20T21:26:28.742Z,36.45
2023-03-20T21:28:55.637Z,35.28
2023-03-20T21:31:30.284Z,35.90
2023-03-20T21:33:57.750Z,39.67
2023-03-20T21:36:24.618Z,37.75
2023-03-20T21:39:07.475Z,38.45
2023-03-20T21:41:35.766Z,41.00
2023-03-20T21:44:03.579Z,43.30
2023-03-20T21:49:58.715Z,42.60
2023-03-20T21:55:48.136Z,45.53
2023-03-20T22:03:11.830Z,48.08
2023-03-20T22:20:18.513Z,51.75
2023-03-20T22:25:53.026Z,55.13
2023-03-20T22:28:34.358Z,54.33
2023-03-20T22:39:40.869Z,52.88
2023-03-20T22:45:00.598Z,52.97
2023-03-20T22:47:22.415Z,53.85
2023-03-20T22:49:48.903Z,54.45
2023-03-20T22:52:29.037Z,54.05
2023-03-20T22:54:58.682Z,52.00
2023-03-20T22:57:38.493Z,51.90
2023-03-20T23:00:10.369Z,54.47
2023-03-20T23:02:37.190Z,53.17
2023-03-20T23:05:03.914Z,50.72
2023-03-20T23:07:30.573Z,51.35
2023-03-20T23:09:58.179Z,52.97
2023-03-20T23:12:24.644Z,54.10
2023-03-20T23:14:51.545Z,53.53
2023-03-20T23:17:18.758Z,53.80
2023-03-20T23:19:50.325Z,54.75
2023-03-20T23:22:18.965Z,55.22
2023-03-20T23:24:45.716Z,55.00
2023-03-20T23:27:12.184Z,56.08
2023-03-20T23:29:38.622Z,53.65
2023-03-20T23:32:05.813Z,53.78
2023-03-20T23:34:32.407Z,59.72
2023-03-20T23:36:58.838Z,55.38
2023-03-20T23:39:25.230Z,55.30
2023-03-20T23:42:12.007Z,56.22
2023-03-20T23:44:44.104Z,54.58
2023-03-20T23:47:20.398Z,55.30
2023-03-20T23:49:47.848Z,57.22
2023-03-20T23:52:14.767Z,56.47
2023-03-20T23:54:41.636Z,55.85
2023-03-20T23:57:08.298Z,57.08
2023-03-20T23:59:34.786Z,56.10
